Time;durP1;ratioP1;P1;durP2;ratioP2;P2;SDS_P1;SDS_P2;PMS_P1;PMS_P2;Temp;Humidity;BMP_temperature;BMP_pressure;BME280_temperature;BME280_humidity;BME280_pressure;Samples;Min_cycle;Max_cycle;Signal;HPM_P1;HPM_P2
2023/03/02 00:00:25;;;;;;;8.97;8.03;;;;;;;;;;4996624;28;20513;-71
2023/03/02 00:02:51;;;;;;;15.43;11.67;;;;;;;;;;4997215;28;20425;-71
2023/03/02 00:05:17;;;;;;;17.57;12.37;;;;;;;;;;4996670;28;20538;-71
2023/03/02 00:07:43;;;;;;;14.80;11.97;;;;;;;;;;4996686;28;20504;-71
2023/03/02 00:10:10;;;;;;;15.80;11.53;;;;;;;;;;4996710;28;20905;-71
2023/03/02 00:12:35;;;;;;;16.50;13.03;;;;;;;;;;4996595;28;20409;-71
2023/03/02 00:15:01;;;;;;;15.17;11.43;;;;;;;;;;4996689;28;20428;-71
2023/03/02 00:17:27;;;;;;;13.00;10.40;;;;;;;;;;4996298;28;20487;-71
2023/03/02 00:19:54;;;;;;;15.03;11.10;;;;;;;;;;4996532;28;20783;-71
2023/03/02 00:22:20;;;;;;;14.43;10.80;;;;;;;;;;4994871;28;20427;-71
2023/03/02 00:24:46;;;;;;;16.10;10.63;;;;;;;;;;4996659;28;20477;-71
2023/03/02 00:27:12;;;;;;;15.30;12.37;;;;;;;;;;4996355;28;20417;-71
2023/03/02 00:29:38;;;;;;;17.93;11.80;;;;;;;;;;4996098;28;20417;-71
2023/03/02 00:32:05;;;;;;;11.43;10.23;;;;;;;;;;4995416;28;20463;-71
2023/03/02 00:34:31;;;;;;;14.43;11.53;;;;;;;;;;4995986;28;20417;-71
2023/03/02 00:36:57;;;;;;;14.90;10.80;;;;;;;;;;4996196;28;20413;-71
2023/03/02 00:39:23;;;;;;;15.70;10.90;;;;;;;;;;4996190;28;20421;-71
2023/03/02 00:41:49;;;;;;;15.17;11.90;;;;;;;;;;4995983;28;20922;-71
2023/03/02 00:44:19;;;;;;;18.03;12.17;;;;;;;;;;4995671;28;20524;-71
2023/03/02 00:46:45;;;;;;;14.17;10.47;;;;;;;;;;4995742;28;20491;-71
2023/03/02 00:49:11;;;;;;;18.37;11.60;;;;;;;;;;4995690;28;20901;-71
2023/03/02 00:51:37;;;;;;;17.27;10.90;;;;;;;;;;4995881;28;20425;-71
2023/03/02 00:54:03;;;;;;;18.70;12.30;;;;;;;;;;4995605;28;20564;-71
2023/03/02 00:56:30;;;;;;;11.63;10.20;;;;;;;;;;4995797;28;20445;-71
2023/03/02 00:58:56;;;;;;;13.10;10.10;;;;;;;;;;4995483;28;20924;-71
2023/03/02 01:01:22;;;;;;;15.90;12.03;;;;;;;;;;4995474;28;20925;-71
2023/03/02 01:03:48;;;;;;;19.77;12.30;;;;;;;;;;4995321;28;20472;-71
2023/03/02 01:06:18;;;;;;;14.30;10.90;;;;;;;;;;4995661;28;20419;-71
2023/03/02 01:08:44;;;;;;;17.53;12.03;;;;;;;;;;4996026;28;20452;-71
2023/03/02 01:11:17;;;;;;;10.80;7.30;;;;;;;;;;4995571;28;20764;-71
2023/03/02 01:13:44;;;;;;;14.37;11.67;;;;;;;;;;4993790;28;20766;-71
2023/03/02 01:16:10;;;;;;;8.40;7.53;;;;;;;;;;4995171;28;20420;-71
2023/03/02 01:18:37;;;;;;;17.80;11.30;;;;;;;;;;4995406;28;20512;-71
2023/03/02 01:21:05;;;;;;;15.07;10.70;;;;;;;;;;4995341;28;20431;-71
2023/03/02 01:23:31;;;;;;;16.80;11.67;;;;;;;;;;4995271;28;20414;-71
2023/03/02 01:25:57;;;;;;;14.73;10.70;;;;;;;;;;4995058;28;20460;-71
2023/03/02 01:28:23;;;;;;;15.97;10.97;;;;;;;;;;4994844;28;20440;-71
2023/03/02 01:30:49;;;;;;;12.80;11.47;;;;;;;;;;4994986;28;20448;-71
2023/03/02 01:33:15;;;;;;;16.53;11.27;;;;;;;;;;4995180;28;20424;-71
2023/03/02 01:35:41;;;;;;;16.30;11.67;;;;;;;;;;4994899;28;20808;-71
2023/03/02 01:38:07;;;;;;;20.70;11.70;;;;;;;;;;4994708;28;20421;-71
2023/03/02 01:40:33;;;;;;;17.73;10.60;;;;;;;;;;4994979;28;20421;-71
2023/03/02 01:43:01;;;;;;;15.63;11.10;;;;;;;;;;4994409;28;20824;-71
2023/03/02 01:45:39;;;;;;;19.00;11.67;;;;;;;;;;4994298;28;20556;-71
2023/03/02 01:48:05;;;;;;;14.93;10.40;;;;;;;;;;4993247;28;20429;-71
2023/03/02 01:50:31;;;;;;;14.87;10.07;;;;;;;;;;4994950;28;20414;-71
2023/03/02 01:52:57;;;;;;;13.67;10.10;;;;;;;;;;4993405;28;20467;-71
2023/03/02 01:55:25;;;;;;;13.33;10.67;;;;;;;;;;4994791;28;20460;-71
2023/03/02 01:57:52;;;;;;;12.80;10.97;;;;;;;;;;4994538;28;20947;-71
2023/03/02 02:00:23;;;;;;;14.70;11.37;;;;;;;;;;4994411;28;20448;-71
2023/03/02 02:02:49;;;;;;;18.40;11.27;;;;;;;;;;4994669;28;20437;-71
2023/03/02 02:05:19;;;;;;;15.33;10.40;;;;;;;;;;4992983;28;20483;-71
2023/03/02 02:07:45;;;;;;;12.97;10.53;;;;;;;;;;4994773;28;20426;-71
2023/03/02 02:10:12;;;;;;;12.13;10.43;;;;;;;;;;4993771;28;20439;-71
2023/03/02 02:12:38;;;;;;;20.87;12.20;;;;;;;;;;4994429;28;20425;-71
2023/03/02 02:15:04;;;;;;;13.63;10.23;;;;;;;;;;4994196;28;20421;-71
2023/03/02 02:17:31;;;;;;;14.87;11.50;;;;;;;;;;4994388;28;20495;-71
2023/03/02 02:20:10;;;;;;;16.97;11.23;;;;;;;;;;4994149;28;20423;-71
2023/03/02 02:22:36;;;;;;;15.57;11.00;;;;;;;;;;4994713;28;20441;-71
2023/03/02 02:25:04;;;;;;;8.47;6.97;;;;;;;;;;4992654;28;20477;-71
2023/03/02 02:27:32;;;;;;;18.07;10.03;;;;;;;;;;4994453;28;20871;-71
2023/03/02 02:29:59;;;;;;;15.87;10.63;;;;;;;;;;4994166;28;20440;-71
2023/03/02 02:32:26;;;;;;;16.43;10.87;;;;;;;;;;4994362;28;20427;-71
2023/03/02 02:34:53;;;;;;;13.20;10.00;;;;;;;;;;4993863;28;20791;-71
2023/03/02 02:37:23;;;;;;;14.87;10.70;;;;;;;;;;4993837;28;20417;-71
2023/03/02 02:39:49;;;;;;;15.17;10.03;;;;;;;;;;4992613;28;20453;-71
2023/03/02 02:42:18;;;;;;;19.20;12.10;;;;;;;;;;4993653;28;20464;-71
2023/03/02 02:44:46;;;;;;;17.33;11.60;;;;;;;;;;4993901;28;20584;-71
2023/03/02 02:47:15;;;;;;;24.27;11.30;;;;;;;;;;4993946;28;20508;-71
2023/03/02 02:49:41;;;;;;;13.83;10.03;;;;;;;;;;4994542;28;20432;-71
2023/03/02 02:52:11;;;;;;;13.60;10.83;;;;;;;;;;4993671;28;20846;-71
2023/03/02 02:54:38;;;;;;;14.50;11.07;;;;;;;;;;4993753;28;20405;-71
2023/03/02 02:57:04;;;;;;;18.30;11.53;;;;;;;;;;4996836;28;20420;-71
2023/03/02 02:59:39;;;;;;;15.37;10.90;;;;;;;;;;4998017;28;20421;-71
2023/03/02 03:02:05;;;;;;;18.63;11.67;;;;;;;;;;4997722;28;20421;-71
2023/03/02 03:07:34;;;;;;;16.30;12.63;;;;;;;;;;4997590;28;20401;-71
2023/03/02 03:10:19;;;;;;;14.97;11.70;;;;;;;;;;4996324;28;20425;-71
2023/03/02 03:12:46;;;;;;;11.07;9.83;;;;;;;;;;4997465;28;20912;-71
2023/03/02 03:15:12;;;;;;;12.57;10.63;;;;;;;;;;4997790;28;20413;-71
2023/03/02 03:17:38;;;;;;;19.33;11.03;;;;;;;;;;4997663;28;20500;-71
2023/03/02 03:20:08;;;;;;;14.30;10.30;;;;;;;;;;4997439;28;20448;-71
2023/03/02 03:22:35;;;;;;;16.23;10.50;;;;;;;;;;4997982;28;20416;-71
2023/03/02 03:25:01;;;;;;;13.67;11.80;;;;;;;;;;4997269;28;20568;-71
2023/03/02 03:27:27;;;;;;;11.43;9.27;;;;;;;;;;4997395;28;20417;-71
2023/03/02 03:29:53;;;;;;;13.50;11.00;;;;;;;;;;4997209;28;20425;-71
2023/03/02 03:32:19;;;;;;;15.50;10.97;;;;;;;;;;4997391;28;20410;-71
2023/03/02 03:34:46;;;;;;;14.27;10.93;;;;;;;;;;4997096;28;20424;-71
2023/03/02 03:37:13;;;;;;;15.70;9.97;;;;;;;;;;4997530;28;21285;-71
2023/03/02 03:39:39;;;;;;;17.50;11.83;;;;;;;;;;4996980;28;20428;-71
2023/03/02 03:42:05;;;;;;;16.53;11.10;;;;;;;;;;4996981;28;20421;-71
2023/03/02 03:44:33;;;;;;;12.60;11.23;;;;;;;;;;4997168;28;20472;-71
2023/03/02 03:46:59;;;;;;;14.03;11.47;;;;;;;;;;4996832;28;20435;-71
2023/03/02 03:49:25;;;;;;;17.00;12.10;;;;;;;;;;4997121;28;20976;-71
2023/03/02 03:51:51;;;;;;;19.60;12.60;;;;;;;;;;4997137;28;20822;-71
2023/03/02 03:54:17;;;;;;;16.20;12.13;;;;;;;;;;4997087;28;20413;-71
2023/03/02 03:56:45;;;;;;;18.97;13.70;;;;;;;;;;4996645;28;20908;-71
2023/03/02 03:59:12;;;;;;;22.53;14.27;;;;;;;;;;4996834;28;20448;-71
2023/03/02 04:01:58;;;;;;;24.00;12.93;;;;;;;;;;4997641;28;20417;-72
2023/03/02 04:04:26;;;;;;;17.40;11.90;;;;;;;;;;4996338;28;20477;-71
2023/03/02 04:06:52;;;;;;;18.70;12.77;;;;;;;;;;4996357;28;20439;-71
2023/03/02 04:09:18;;;;;;;14.80;11.87;;;;;;;;;;4995216;28;20455;-71
2023/03/02 04:11:45;;;;;;;19.87;13.00;;;;;;;;;;4996708;28;20421;-71
2023/03/02 04:14:11;;;;;;;15.03;11.53;;;;;;;;;;4996392;28;20917;-71
2023/03/02 04:16:38;;;;;;;20.03;12.97;;;;;;;;;;4996530;28;20429;-71
2023/03/02 04:19:08;;;;;;;16.10;12.97;;;;;;;;;;4996302;28;20420;-71
2023/03/02 04:21:34;;;;;;;19.97;13.27;;;;;;;;;;4996496;28;20428;-71
2023/03/02 04:24:00;;;;;;;21.80;15.57;;;;;;;;;;4996209;28;20553;-71
2023/03/02 04:26:26;;;;;;;23.47;14.60;;;;;;;;;;4996436;28;20417;-72
2023/03/02 04:28:52;;;;;;;20.97;14.00;;;;;;;;;;4996381;28;20431;-71
2023/03/02 04:31:18;;;;;;;21.30;13.73;;;;;;;;;;4996102;28;20417;-71
2023/03/02 04:33:44;;;;;;;19.20;12.93;;;;;;;;;;4996221;28;20489;-71
2023/03/02 04:36:10;;;;;;;18.73;13.60;;;;;;;;;;4996264;28;20425;-71
2023/03/02 04:38:36;;;;;;;18.30;13.60;;;;;;;;;;4996466;28;20425;-71
2023/03/02 04:41:03;;;;;;;19.33;13.27;;;;;;;;;;4996279;28;20504;-71
2023/03/02 04:43:29;;;;;;;17.30;12.57;;;;;;;;;;4995965;28;20476;-71
2023/03/02 04:45:55;;;;;;;23.30;13.30;;;;;;;;;;4996051;28;20479;-71
2023/03/02 04:48:21;;;;;;;18.70;13.80;;;;;;;;;;4995944;28;20424;-71
2023/03/02 04:50:47;;;;;;;22.67;14.40;;;;;;;;;;4995828;28;20979;-71
2023/03/02 04:53:13;;;;;;;23.03;15.50;;;;;;;;;;4995882;28;20508;-71
2023/03/02 04:55:39;;;;;;;43.33;21.73;;;;;;;;;;4995878;28;20479;-71
2023/03/02 04:58:06;;;;;;;23.73;13.53;;;;;;;;;;4995470;28;20425;-71
2023/03/02 05:00:34;;;;;;;20.47;13.67;;;;;;;;;;4995707;28;20453;-71
2023/03/02 05:03:00;;;;;;;18.00;12.83;;;;;;;;;;4995675;28;20421;-71
2023/03/02 05:05:27;;;;;;;20.10;13.37;;;;;;;;;;4995402;28;20472;-71
2023/03/02 05:07:53;;;;;;;18.33;14.00;;;;;;;;;;4995438;28;20424;-71
2023/03/02 05:10:19;;;;;;;17.30;12.87;;;;;;;;;;4995901;28;20425;-71
2023/03/02 05:12:57;;;;;;;28.30;14.67;;;;;;;;;;4995474;28;20420;-71
2023/03/02 05:15:43;;;;;;;19.30;13.87;;;;;;;;;;4994058;28;20436;-71
2023/03/02 05:18:10;;;;;;;18.90;13.50;;;;;;;;;;4994806;28;20830;-71
2023/03/02 05:20:36;;;;;;;17.10;13.13;;;;;;;;;;4995124;28;20794;-71
2023/03/02 05:23:06;;;;;;;22.63;13.00;;;;;;;;;;4995515;28;20409;-71
2023/03/02 05:25:33;;;;;;;43.07;20.70;;;;;;;;;;4995020;28;20473;-71
2023/03/02 05:27:59;;;;;;;52.53;24.07;;;;;;;;;;4995102;28;20520;-71
2023/03/02 05:30:25;;;;;;;39.17;21.43;;;;;;;;;;4994412;28;20528;-71
2023/03/02 05:32:51;;;;;;;43.27;20.87;;;;;;;;;;4995150;28;20425;-71
2023/03/02 05:35:18;;;;;;;54.83;27.50;;;;;;;;;;4994878;28;20495;-71
2023/03/02 05:37:44;;;;;;;20.67;13.30;;;;;;;;;;4994741;28;20425;-71
2023/03/02 05:40:15;;;;;;;21.50;13.97;;;;;;;;;;4994719;28;20468;-71
2023/03/02 05:42:41;;;;;;;21.97;12.80;;;;;;;;;;4994734;28;20479;-72
2023/03/02 05:45:09;;;;;;;33.53;16.23;;;;;;;;;;4994825;28;20476;-71
2023/03/02 05:47:34;;;;;;;24.03;15.33;;;;;;;;;;4995160;28;20417;-71
2023/03/02 05:50:01;;;;;;;29.53;17.67;;;;;;;;;;4994724;28;20471;-71
2023/03/02 05:52:27;;;;;;;22.53;15.23;;;;;;;;;;4993295;28;20422;-72
2023/03/02 05:54:53;;;;;;;30.53;16.27;;;;;;;;;;4994619;28;20425;-71
2023/03/02 05:57:18;;;;;;;37.67;18.63;;;;;;;;;;4994616;28;20432;-71
2023/03/02 05:59:45;;;;;;;31.00;17.10;;;;;;;;;;4994746;28;20440;-72
2023/03/02 06:02:11;;;;;;;20.67;12.83;;;;;;;;;;4994637;28;20424;-72
2023/03/02 06:04:41;;;;;;;22.37;15.00;;;;;;;;;;4994518;28;20468;-71
2023/03/02 06:07:07;;;;;;;25.03;15.33;;;;;;;;;;4994350;28;20452;-72
2023/03/02 06:09:33;;;;;;;21.57;15.60;;;;;;;;;;4992994;28;20972;-71
2023/03/02 06:11:59;;;;;;;21.53;14.57;;;;;;;;;;4994305;28;20413;-72
2023/03/02 06:14:25;;;;;;;22.40;14.70;;;;;;;;;;4993032;28;20426;-72
2023/03/02 06:16:51;;;;;;;19.40;14.33;;;;;;;;;;4994408;28;20429;-72
2023/03/02 06:19:17;;;;;;;21.57;14.40;;;;;;;;;;4992919;28;20527;-71
2023/03/02 06:21:43;;;;;;;23.73;14.13;;;;;;;;;;4994176;28;20912;-71
2023/03/02 06:24:09;;;;;;;23.73;15.60;;;;;;;;;;4994476;28;21075;-72
2023/03/02 06:26:35;;;;;;;23.83;15.27;;;;;;;;;;4994031;28;20467;-71
2023/03/02 06:29:01;;;;;;;22.40;15.57;;;;;;;;;;4993853;28;20417;-71
2023/03/02 06:31:27;;;;;;;40.70;19.40;;;;;;;;;;4993463;28;20500;-72
2023/03/02 06:33:53;;;;;;;25.97;15.90;;;;;;;;;;4993941;28;20425;-71
2023/03/02 06:36:19;;;;;;;25.17;15.17;;;;;;;;;;4993840;28;20537;-71
2023/03/02 06:38:45;;;;;;;21.53;14.97;;;;;;;;;;4993915;28;20417;-72
2023/03/02 06:41:11;;;;;;;24.30;16.37;;;;;;;;;;4994437;28;20575;-71
2023/03/02 06:43:37;;;;;;;22.20;14.80;;;;;;;;;;4993686;28;20992;-71
2023/03/02 06:46:04;;;;;;;20.23;15.10;;;;;;;;;;4994185;28;20429;-72
2023/03/02 06:48:30;;;;;;;19.90;13.90;;;;;;;;;;4993633;28;20476;-71
2023/03/02 06:50:56;;;;;;;19.77;14.37;;;;;;;;;;4993993;28;20429;-71
2023/03/02 06:53:22;;;;;;;22.10;14.73;;;;;;;;;;4992503;28;20444;-71
2023/03/02 06:55:48;;;;;;;18.33;12.90;;;;;;;;;;4993897;28;20448;-71
2023/03/02 06:58:14;;;;;;;24.70;15.90;;;;;;;;;;4993545;28;20742;-72
2023/03/02 07:00:40;;;;;;;25.27;13.57;;;;;;;;;;4993760;28;20468;-72
2023/03/02 07:03:06;;;;;;;18.50;12.73;;;;;;;;;;4993749;28;20777;-72
2023/03/02 07:05:32;;;;;;;17.53;13.67;;;;;;;;;;4993752;28;20555;-71
2023/03/02 07:07:59;;;;;;;17.57;12.37;;;;;;;;;;4993545;28;20471;-72
2023/03/02 07:10:25;;;;;;;25.77;14.90;;;;;;;;;;4993487;28;20417;-71
2023/03/02 07:12:51;;;;;;;19.93;14.30;;;;;;;;;;4993490;28;20460;-71
2023/03/02 07:15:17;;;;;;;19.30;13.60;;;;;;;;;;4992283;28;20937;-72
2023/03/02 07:17:44;;;;;;;24.70;14.60;;;;;;;;;;4991835;28;20432;-71
2023/03/02 07:20:11;;;;;;;22.30;13.63;;;;;;;;;;4993252;28;20516;-72
2023/03/02 07:22:38;;;;;;;21.50;13.33;;;;;;;;;;4993425;28;20408;-72
2023/03/02 07:25:04;;;;;;;23.97;14.97;;;;;;;;;;4993619;28;20519;-71
2023/03/02 07:27:30;;;;;;;20.80;13.23;;;;;;;;;;4993476;28;20428;-72
2023/03/02 07:29:56;;;;;;;18.80;12.60;;;;;;;;;;4993385;28;20417;-71
2023/03/02 07:32:22;;;;;;;23.10;14.10;;;;;;;;;;4993312;28;20785;-72
2023/03/02 07:34:48;;;;;;;18.00;13.43;;;;;;;;;;4993360;28;20449;-71
2023/03/02 07:37:14;;;;;;;19.60;14.53;;;;;;;;;;4993230;28;20409;-72
2023/03/02 07:39:40;;;;;;;20.53;15.13;;;;;;;;;;4993592;28;20417;-71
2023/03/02 07:42:07;;;;;;;21.07;14.80;;;;;;;;;;4994232;28;20500;-71
2023/03/02 07:44:34;;;;;;;22.90;14.67;;;;;;;;;;4996696;28;20472;-72
2023/03/02 07:47:00;;;;;;;24.60;16.50;;;;;;;;;;4997224;28;20476;-70
2023/03/02 07:49:26;;;;;;;24.70;15.13;;;;;;;;;;4997262;28;20483;-72
2023/03/02 07:51:52;;;;;;;24.07;15.60;;;;;;;;;;4996984;28;20867;-70
2023/03/02 07:54:18;;;;;;;24.93;16.00;;;;;;;;;;4997109;28;20787;-69
2023/03/02 07:56:44;;;;;;;21.00;14.17;;;;;;;;;;4996611;28;20905;-73
2023/03/02 07:59:11;;;;;;;22.13;14.50;;;;;;;;;;4996912;28;20417;-71
2023/03/02 08:01:37;;;;;;;21.93;15.43;;;;;;;;;;4997086;28;20413;-71
2023/03/02 08:04:03;;;;;;;20.70;15.90;;;;;;;;;;4996423;28;20822;-70
2023/03/02 08:06:29;;;;;;;23.27;13.47;;;;;;;;;;4996442;28;20429;-71
2023/03/02 08:08:55;;;;;;;31.70;15.10;;;;;;;;;;4996381;28;20463;-71
2023/03/02 08:11:22;;;;;;;22.87;15.50;;;;;;;;;;4994986;28;20433;-71
2023/03/02 08:13:48;;;;;;;21.67;15.33;;;;;;;;;;4996573;28;20844;-70
2023/03/02 08:16:15;;;;;;;26.50;16.80;;;;;;;;;;4996528;28;20471;-71
2023/03/02 08:18:41;;;;;;;20.60;14.17;;;;;;;;;;4996298;28;20818;-72
2023/03/02 08:21:14;;;;;;;19.53;14.00;;;;;;;;;;4996510;28;20474;-73
2023/03/02 08:23:41;;;;;;;23.57;16.17;;;;;;;;;;4996949;28;20402;-72
2023/03/02 08:26:07;;;;;;;19.73;15.23;;;;;;;;;;4996111;28;20460;-68
2023/03/02 08:28:33;;;;;;;33.23;16.30;;;;;;;;;;4996070;28;20460;-72
2023/03/02 08:31:00;;;;;;;26.13;16.40;;;;;;;;;;4996339;28;20456;-71
2023/03/02 08:33:27;;;;;;;25.20;15.87;;;;;;;;;;4996295;28;20425;-71
2023/03/02 08:35:54;;;;;;;19.67;14.50;;;;;;;;;;4996020;28;20475;-72
2023/03/02 08:38:19;;;;;;;23.20;15.70;;;;;;;;;;4996585;28;20421;-71
2023/03/02 08:40:45;;;;;;;25.23;17.10;;;;;;;;;;4996428;28;20913;-73
2023/03/02 08:43:11;;;;;;;25.03;16.80;;;;;;;;;;4995710;28;21038;-71
2023/03/02 08:45:37;;;;;;;22.70;15.03;;;;;;;;;;4995821;28;20469;-72
2023/03/02 08:48:03;;;;;;;27.40;15.20;;;;;;;;;;4996418;28;20916;-71
2023/03/02 08:50:29;;;;;;;20.73;15.30;;;;;;;;;;4996084;28;20960;-74
2023/03/02 08:52:55;;;;;;;32.80;16.60;;;;;;;;;;4995819;28;20456;-71
2023/03/02 08:55:21;;;;;;;25.13;16.30;;;;;;;;;;4995293;28;20433;-71
2023/03/02 08:57:47;;;;;;;24.30;16.33;;;;;;;;;;4995763;28;20414;-71
2023/03/02 09:00:15;;;;;;;25.43;16.50;;;;;;;;;;4995777;28;20789;-71
2023/03/02 09:02:41;;;;;;;21.63;15.87;;;;;;;;;;4995676;28;20444;-71
2023/03/02 09:05:07;;;;;;;23.10;16.73;;;;;;;;;;4996003;28;20538;-69
2023/03/02 09:07:33;;;;;;;29.50;18.43;;;;;;;;;;4995157;28;20917;-68
2023/03/02 09:09:59;;;;;;;30.53;18.90;;;;;;;;;;4994140;28;20440;-71
2023/03/02 09:12:25;;;;;;;28.07;17.13;;;;;;;;;;4995766;28;20429;-71
2023/03/02 09:14:51;;;;;;;25.53;18.53;;;;;;;;;;4995215;28;20413;-71
2023/03/02 09:17:17;;;;;;;32.42;20.42;;;;;;;;;;4994254;28;20409;-71
2023/03/02 09:19:43;;;;;;;22.57;17.00;;;;;;;;;;4995113;28;20186;-71
2023/03/02 09:22:09;;;;;;;23.63;15.33;;;;;;;;;;4995611;28;20424;-71
2023/03/02 09:24:35;;;;;;;27.73;16.23;;;;;;;;;;4995121;28;20488;-71
2023/03/02 09:27:02;;;;;;;25.40;16.57;;;;;;;;;;4994929;28;20464;-71
2023/03/02 09:29:28;;;;;;;23.80;15.70;;;;;;;;;;4995166;28;20424;-71
2023/03/02 09:31:54;;;;;;;24.10;16.00;;;;;;;;;;4994990;28;20452;-71
2023/03/02 09:34:20;;;;;;;20.30;16.20;;;;;;;;;;4995164;28;20421;-71
2023/03/02 09:36:46;;;;;;;23.13;14.87;;;;;;;;;;4995026;28;20509;-71
2023/03/02 09:39:12;;;;;;;22.70;15.00;;;;;;;;;;4994768;28;20504;-71
2023/03/02 09:41:38;;;;;;;23.83;15.30;;;;;;;;;;4995349;28;20410;-71
2023/03/02 09:44:17;;;;;;;23.37;16.60;;;;;;;;;;4995196;28;20480;-72
2023/03/02 09:46:50;;;;;;;23.50;16.63;;;;;;;;;;4994814;28;20416;-71
2023/03/02 09:49:19;;;;;;;22.97;15.10;;;;;;;;;;4995208;28;20393;-71
2023/03/02 09:51:47;;;;;;;24.47;16.03;;;;;;;;;;4994486;28;20422;-71
2023/03/02 09:54:14;;;;;;;23.20;16.33;;;;;;;;;;4994406;28;20548;-72
2023/03/02 09:56:44;;;;;;;27.47;17.90;;;;;;;;;;4994321;28;20421;-71
2023/03/02 09:59:17;;;;;;;39.00;24.50;;;;;;;;;;4993990;28;20481;-72
2023/03/02 10:01:52;;;;;;;34.27;22.37;;;;;;;;;;4994585;28;20963;-72
2023/03/02 10:04:21;;;;;;;38.23;20.13;;;;;;;;;;4992781;28;20468;-71
2023/03/02 10:06:55;;;;;;;24.40;16.30;;;;;;;;;;4992964;28;20797;-71
2023/03/02 10:09:21;;;;;;;26.40;17.40;;;;;;;;;;4994382;28;20480;-71
2023/03/02 10:11:53;;;;;;;23.50;17.40;;;;;;;;;;4992873;28;20447;-71
2023/03/02 10:14:24;;;;;;;30.33;17.77;;;;;;;;;;4994187;28;20941;-72
2023/03/02 10:17:10;;;;;;;25.67;17.37;;;;;;;;;;4992822;28;20428;-71
2023/03/02 10:19:43;;;;;;;31.90;20.23;;;;;;;;;;4993460;28;20773;-71
2023/03/02 10:22:16;;;;;;;33.87;19.53;;;;;;;;;;4993960;28;20423;-71
2023/03/02 10:24:49;;;;;;;25.17;17.30;;;;;;;;;;4994261;28;20556;-71
2023/03/02 10:27:17;;;;;;;25.00;15.77;;;;;;;;;;4976453;28;20433;-71
2023/03/02 10:29:53;;;;;;;22.87;16.80;;;;;;;;;;4993792;28;20413;-71
2023/03/02 10:32:19;;;;;;;27.47;17.80;;;;;;;;;;4993486;28;20846;-72
2023/03/02 10:34:46;;;;;;;29.20;17.93;;;;;;;;;;4994167;28;20413;-71
2023/03/02 10:37:21;;;;;;;29.30;17.70;;;;;;;;;;4994070;28;20504;-71
2023/03/02 10:39:47;;;;;;;24.00;15.83;;;;;;;;;;4993848;28;20405;-70
2023/03/02 10:42:19;;;;;;;27.58;17.65;;;;;;;;;;4993491;28;20457;-71
2023/03/02 10:44:47;;;;;;;26.63;17.70;;;;;;;;;;4992542;28;20213;-71
2023/03/02 10:47:21;;;;;;;25.93;16.77;;;;;;;;;;4993709;28;21078;-71
2023/03/02 10:49:47;;;;;;;28.03;17.23;;;;;;;;;;4993994;28;20424;-71
2023/03/02 10:52:15;;;;;;;32.27;17.50;;;;;;;;;;4993837;28;20420;-71
2023/03/02 10:54:41;;;;;;;26.27;16.43;;;;;;;;;;4994006;28;20474;-71
2023/03/02 10:57:26;;;;;;;33.30;17.43;;;;;;;;;;4993600;28;20905;-72
2023/03/02 10:59:52;;;;;;;30.90;20.70;;;;;;;;;;4992348;28;20425;-72
2023/03/02 11:02:20;;;;;;;29.30;17.70;;;;;;;;;;4993796;28;20418;-71
2023/03/02 11:04:46;;;;;;;29.90;17.73;;;;;;;;;;4992630;28;20530;-72
2023/03/02 11:07:17;;;;;;;28.13;17.03;;;;;;;;;;4992300;28;20528;-71
2023/03/02 11:10:03;;;;;;;25.47;17.47;;;;;;;;;;4993656;28;20425;-71
2023/03/02 11:12:30;;;;;;;23.80;17.63;;;;;;;;;;4993662;28;20412;-71
2023/03/02 11:15:15;;;;;;;30.53;19.07;;;;;;;;;;4993887;28;20420;-72
2023/03/02 11:17:43;;;;;;;31.43;16.57;;;;;;;;;;4995760;28;20416;-71
2023/03/02 11:20:17;;;;;;;35.37;19.27;;;;;;;;;;4997378;28;20527;-71
2023/03/02 11:23:15;;;;;;;30.97;18.10;;;;;;;;;;4995968;28;20512;-71
2023/03/02 11:25:51;;;;;;;67.53;37.73;;;;;;;;;;4975363;28;20534;-72
2023/03/02 11:28:46;;;;;;;41.17;20.77;;;;;;;;;;4997545;28;20446;-72
2023/03/02 11:31:16;;;;;;;37.10;22.95;;;;;;;;;;4987710;28;20923;-71
2023/03/02 11:34:00;;;;;;;32.23;21.03;;;;;;;;;;4997239;28;20181;-72
2023/03/02 11:36:36;;;;;;;39.87;26.20;;;;;;;;;;4997392;28;20479;-72
2023/03/02 11:39:08;;;;;;;31.70;19.50;;;;;;;;;;4996957;28;20920;-72
2023/03/02 11:41:35;;;;;;;26.63;18.10;;;;;;;;;;4997221;28;20413;-71
2023/03/02 11:44:05;;;;;;;26.30;18.37;;;;;;;;;;4996702;28;20539;-71
2023/03/02 11:46:32;;;;;;;24.70;18.20;;;;;;;;;;4997117;28;20931;-70
2023/03/02 11:49:00;;;;;;;28.60;18.60;;;;;;;;;;4997072;28;20448;-71
2023/03/02 11:51:29;;;;;;;27.43;18.50;;;;;;;;;;4996806;28;20409;-71
2023/03/02 11:54:03;;;;;;;40.83;19.33;;;;;;;;;;4996864;28;20424;-71
2023/03/02 11:56:32;;;;;;;31.30;19.37;;;;;;;;;;4995768;28;20428;-71
2023/03/02 11:58:59;;;;;;;25.77;18.03;;;;;;;;;;4994998;28;20428;-71
2023/03/02 12:01:26;;;;;;;27.00;20.40;;;;;;;;;;4996457;28;20437;-71
2023/03/02 12:03:53;;;;;;;28.40;18.83;;;;;;;;;;4996378;28;20909;-72
2023/03/02 12:06:23;;;;;;;37.80;18.40;;;;;;;;;;4996376;28;20929;-72
2023/03/02 12:08:51;;;;;;;29.50;19.63;;;;;;;;;;4996397;28;20405;-71
2023/03/02 12:11:17;;;;;;;34.47;20.67;;;;;;;;;;4996674;28;20421;-71
2023/03/02 12:14:03;;;;;;;28.47;17.80;;;;;;;;;;4996654;28;20889;-72
2023/03/02 12:16:39;;;;;;;28.03;18.20;;;;;;;;;;4996104;28;20801;-71
2023/03/02 12:19:14;;;;;;;36.53;18.90;;;;;;;;;;4996263;28;20413;-71
2023/03/02 12:21:41;;;;;;;30.20;19.00;;;;;;;;;;4996659;28;20764;-72
2023/03/02 12:27:23;;;;;;;30.80;18.07;;;;;;;;;;4996050;28;20399;-71
2023/03/02 12:29:50;;;;;;;28.00;18.30;;;;;;;;;;4994960;28;20401;-72
2023/03/02 12:32:24;;;;;;;28.97;18.50;;;;;;;;;;4996259;28;20479;-71
2023/03/02 12:34:58;;;;;;;27.03;19.43;;;;;;;;;;4995912;28;20413;-72
2023/03/02 12:37:44;;;;;;;31.20;21.50;;;;;;;;;;4996294;28;20423;-72
2023/03/02 12:40:23;;;;;;;34.97;19.87;;;;;;;;;;4995588;28;20499;-72
2023/03/02 12:42:58;;;;;;;27.07;17.83;;;;;;;;;;4994616;28;20559;-71
2023/03/02 12:45:43;;;;;;;31.07;19.10;;;;;;;;;;4996264;28;20468;-71
2023/03/02 12:48:25;;;;;;;29.17;18.20;;;;;;;;;;4995643;28;20963;-71
2023/03/02 12:50:55;;;;;;;34.60;21.80;;;;;;;;;;4995825;28;20471;-72
2023/03/02 12:53:21;;;;;;;30.80;19.87;;;;;;;;;;4995898;28;20463;-71
2023/03/02 12:55:47;;;;;;;28.10;18.47;;;;;;;;;;4995586;28;20432;-70
2023/03/02 12:58:16;;;;;;;34.37;18.37;;;;;;;;;;4995791;28;20421;-71
2023/03/02 13:00:48;;;;;;;29.57;19.30;;;;;;;;;;4995678;28;20425;-71
2023/03/02 13:03:14;;;;;;;29.27;17.57;;;;;;;;;;4995762;28;20732;-71
2023/03/02 13:05:41;;;;;;;24.70;16.80;;;;;;;;;;4994001;28;21118;-71
2023/03/02 13:08:11;;;;;;;30.80;18.50;;;;;;;;;;4994133;28;20422;-71
2023/03/02 13:10:39;;;;;;;26.70;17.60;;;;;;;;;;4995503;28;20413;-71
2023/03/02 13:13:16;;;;;;;31.80;19.70;;;;;;;;;;4995657;28;20417;-71
2023/03/02 13:15:58;;;;;;;31.47;19.37;;;;;;;;;;4995164;28;21013;-71
2023/03/02 13:18:29;;;;;;;42.83;24.67;;;;;;;;;;4995196;28;20957;-71
2023/03/02 13:20:55;;;;;;;33.27;19.90;;;;;;;;;;4995283;28;20405;-71
2023/03/02 13:23:21;;;;;;;28.30;18.10;;;;;;;;;;4993875;28;20973;-71
2023/03/02 13:25:51;;;;;;;35.27;19.53;;;;;;;;;;4994815;28;20481;-71
2023/03/02 13:28:29;;;;;;;28.40;16.70;;;;;;;;;;4994926;28;20421;-71
2023/03/02 13:31:00;;;;;;;32.50;19.20;;;;;;;;;;4995052;28;20802;-72
2023/03/02 13:33:27;;;;;;;33.47;18.93;;;;;;;;;;4993957;28;20951;-72
2023/03/02 13:35:54;;;;;;;32.13;20.30;;;;;;;;;;4994991;28;20421;-71
2023/03/02 13:38:22;;;;;;;27.13;18.73;;;;;;;;;;4994749;28;20413;-71
2023/03/02 13:40:50;;;;;;;42.67;19.10;;;;;;;;;;4994131;28;20490;-71
2023/03/02 13:43:31;;;;;;;27.80;16.97;;;;;;;;;;4994310;28;20460;-72
2023/03/02 13:46:01;;;;;;;25.37;17.37;;;;;;;;;;4994618;28;20511;-72
2023/03/02 13:48:27;;;;;;;28.97;18.67;;;;;;;;;;4994964;28;20409;-71
2023/03/02 13:51:01;;;;;;;29.53;18.40;;;;;;;;;;4993335;28;20425;-72
2023/03/02 13:53:29;;;;;;;28.80;17.67;;;;;;;;;;4994725;28;20479;-72
2023/03/02 13:55:55;;;;;;;32.23;18.80;;;;;;;;;;4994528;28;20475;-72
2023/03/02 13:58:23;;;;;;;29.93;18.77;;;;;;;;;;4994481;28;20484;-71
2023/03/02 14:00:50;;;;;;;34.53;20.83;;;;;;;;;;4994656;28;20417;-72
2023/03/02 14:03:24;;;;;;;28.10;18.30;;;;;;;;;;4994771;28;20471;-71
2023/03/02 14:05:50;;;;;;;28.87;17.50;;;;;;;;;;4994610;28;20504;-71
2023/03/02 14:08:17;;;;;;;35.20;19.90;;;;;;;;;;4994318;28;20964;-72
2023/03/02 14:10:43;;;;;;;28.73;17.83;;;;;;;;;;4994225;28;20448;-72
2023/03/02 14:13:14;;;;;;;26.07;18.20;;;;;;;;;;4994850;28;20940;-72
2023/03/02 14:15:42;;;;;;;36.53;23.00;;;;;;;;;;4993267;28;20404;-71
2023/03/02 14:18:24;;;;;;;36.20;23.90;;;;;;;;;;4993000;28;20444;-71
2023/03/02 14:20:50;;;;;;;28.80;18.40;;;;;;;;;;4994314;28;20404;-72
2023/03/02 14:23:16;;;;;;;39.23;19.73;;;;;;;;;;4994056;28;20532;-71
2023/03/02 14:25:42;;;;;;;28.70;17.47;;;;;;;;;;4993655;28;20503;-71
2023/03/02 14:28:15;;;;;;;28.90;18.20;;;;;;;;;;4994047;28;20410;-72
2023/03/02 14:30:43;;;;;;;29.47;16.93;;;;;;;;;;4993951;28;20414;-71